sensor_id;sensor_type;location;lat;lon;timestamp;pressure;altitude;pressure_sealevel;temperature;humidity
9523;BME280;63165;43.016;25.784;2023-03-12T00:00:39;99002.31;;;6.86;46.31
9523;BME280;63165;43.016;25.784;2023-03-12T00:03:20;98935.84;;;6.72;46.27
9523;BME280;63165;43.016;25.784;2023-03-12T00:05:48;99073.22;;;7.41;46.51
9523;BME280;63165;43.016;25.784;2023-03-12T00:08:29;99118.56;;;7.74;46.80
9523;BME280;63165;43.016;25.784;2023-03-12T00:10:57;99109.31;;;7.59;46.66
9523;BME280;63165;43.016;25.784;2023-03-12T00:13:24;99128.94;;;7.77;46.71
9523;BME280;63165;43.016;25.784;2023-03-12T00:15:53;99116.78;;;7.76;46.99
9523;BME280;63165;43.016;25.784;2023-03-12T00:18:20;99132.41;;;7.76;47.10
9523;BME280;63165;43.016;25.784;2023-03-12T00:20:53;99101.50;;;7.59;46.88
9523;BME280;63165;43.016;25.784;2023-03-12T00:23:20;99118.69;;;7.68;46.80
9523;BME280;63165;43.016;25.784;2023-03-12T00:25:47;99115.41;;;7.60;46.82
9523;BME280;63165;43.016;25.784;2023-03-12T00:28:14;99139.38;;;7.74;46.77
9523;BME280;63165;43.016;25.784;2023-03-12T00:30:41;99142.03;;;7.72;47.21
9523;BME280;63165;43.016;25.784;2023-03-12T00:33:11;99130.88;;;7.67;46.67
9523;BME280;63165;43.016;25.784;2023-03-12T00:35:38;99147.19;;;7.74;46.37
9523;BME280;63165;43.016;25.784;2023-03-12T00:38:06;99141.16;;;7.73;46.25
9523;BME280;63165;43.016;25.784;2023-03-12T00:40:33;99124.75;;;7.68;46.47
9523;BME280;63165;43.016;25.784;2023-03-12T00:43:00;99128.97;;;7.74;46.36
9523;BME280;63165;43.016;25.784;2023-03-12T00:45:27;99129.06;;;7.71;45.96
9523;BME280;63165;43.016;25.784;2023-03-12T00:47:55;99119.50;;;7.71;46.38
9523;BME280;63165;43.016;25.784;2023-03-12T00:50:24;99111.84;;;7.64;46.39
9523;BME280;63165;43.016;25.784;2023-03-12T00:52:51;99129.91;;;7.71;46.40
9523;BME280;63165;43.016;25.784;2023-03-12T00:55:18;99133.34;;;7.72;46.30
9523;BME280;63165;43.016;25.784;2023-03-12T00:57:45;99125.56;;;7.72;46.24
9523;BME280;63165;43.016;25.784;2023-03-12T01:00:13;99114.34;;;7.68;46.52
9523;BME280;63165;43.016;25.784;2023-03-12T01:02:41;99111.88;;;7.61;46.73
9523;BME280;63165;43.016;25.784;2023-03-12T01:05:11;99106.78;;;7.56;46.80
9523;BME280;63165;43.016;25.784;2023-03-12T01:07:40;99124.03;;;7.62;46.77
9523;BME280;63165;43.016;25.784;2023-03-12T01:10:12;99123.16;;;7.61;46.12
9523;BME280;63165;43.016;25.784;2023-03-12T01:12:39;99104.22;;;7.54;46.60
9523;BME280;63165;43.016;25.784;2023-03-12T01:15:07;99073.44;;;7.31;46.40
9523;BME280;63165;43.016;25.784;2023-03-12T01:17:35;99118.06;;;7.56;46.09
9523;BME280;63165;43.016;25.784;2023-03-12T01:20:03;99114.78;;;7.45;46.36
9523;BME280;63165;43.016;25.784;2023-03-12T01:22:31;99143.28;;;7.53;46.51
9523;BME280;63165;43.016;25.784;2023-03-12T01:25:00;99148.47;;;7.53;46.60
9523;BME280;63165;43.016;25.784;2023-03-12T01:27:27;99144.19;;;7.52;46.29
9523;BME280;63165;43.016;25.784;2023-03-12T01:29:54;99142.44;;;7.52;46.41
9523;BME280;63165;43.016;25.784;2023-03-12T01:32:22;99137.25;;;7.49;46.19
9523;BME280;63165;43.016;25.784;2023-03-12T01:34:49;99136.44;;;7.47;46.32
9523;BME280;63165;43.016;25.784;2023-03-12T01:37:16;99138.28;;;7.41;46.50
9523;BME280;63165;43.016;25.784;2023-03-12T01:39:43;99166.81;;;7.48;46.52
9523;BME280;63165;43.016;25.784;2023-03-12T01:42:12;99156.50;;;7.41;46.13
9523;BME280;63165;43.016;25.784;2023-03-12T01:44:50;99165.22;;;7.39;45.97
9523;BME280;63165;43.016;25.784;2023-03-12T01:47:17;99160.16;;;7.30;45.86
9523;BME280;63165;43.016;25.784;2023-03-12T01:49:44;99152.38;;;7.29;46.00
9523;BME280;63165;43.016;25.784;2023-03-12T01:52:14;99176.50;;;7.38;46.31
9523;BME280;63165;43.016;25.784;2023-03-12T01:54:44;99180.84;;;7.38;46.20
9523;BME280;63165;43.016;25.784;2023-03-12T01:57:18;99181.78;;;7.34;46.02
9523;BME280;63165;43.016;25.784;2023-03-12T01:59:50;99175.69;;;7.35;45.86
9523;BME280;63165;43.016;25.784;2023-03-12T02:02:18;99176.63;;;7.31;45.88
9523;BME280;63165;43.016;25.784;2023-03-12T02:04:51;99183.50;;;7.35;45.88
9523;BME280;63165;43.016;25.784;2023-03-12T02:07:24;99168.91;;;7.26;45.97
9523;BME280;63165;43.016;25.784;2023-03-12T02:09:51;99177.56;;;7.28;46.14
9523;BME280;63165;43.016;25.784;2023-03-12T02:12:20;99181.00;;;7.29;45.89
9523;BME280;63165;43.016;25.784;2023-03-12T02:14:47;99167.34;;;7.16;45.54
9523;BME280;63165;43.016;25.784;2023-03-12T02:17:15;99166.34;;;7.25;46.05
9523;BME280;63165;43.016;25.784;2023-03-12T02:19:48;99170.69;;;7.24;46.04
9523;BME280;63165;43.016;25.784;2023-03-12T02:22:19;99168.91;;;7.26;46.01
9523;BME280;63165;43.016;25.784;2023-03-12T02:24:51;99178.50;;;7.24;46.22
9523;BME280;63165;43.016;25.784;2023-03-12T02:27:22;99190.63;;;7.24;46.76
9523;BME280;63165;43.016;25.784;2023-03-12T02:29:49;99132.16;;;6.95;46.32
9523;BME280;63165;43.016;25.784;2023-03-12T02:32:21;99209.75;;;7.21;46.44
9523;BME280;63165;43.016;25.784;2023-03-12T02:34:49;99194.34;;;7.09;46.13
9523;BME280;63165;43.016;25.784;2023-03-12T02:37:17;99225.47;;;7.16;46.01
9523;BME280;63165;43.016;25.784;2023-03-12T02:39:50;99232.47;;;7.11;45.96
9523;BME280;63165;43.016;25.784;2023-03-12T02:42:22;99251.53;;;7.12;46.37
9523;BME280;63165;43.016;25.784;2023-03-12T02:44:50;99249.84;;;7.09;46.35
9523;BME280;63165;43.016;25.784;2023-03-12T02:47:17;99248.22;;;7.00;46.13
9523;BME280;63165;43.016;25.784;2023-03-12T02:49:44;99259.41;;;7.07;46.10
9523;BME280;63165;43.016;25.784;2023-03-12T02:52:11;99247.44;;;6.95;46.01
9523;BME280;63165;43.016;25.784;2023-03-12T02:54:39;99271.59;;;7.04;45.86
9523;BME280;63165;43.016;25.784;2023-03-12T02:57:06;99263.91;;;6.96;45.58
9523;BME280;63165;43.016;25.784;2023-03-12T02:59:35;99269.16;;;6.93;46.30
9523;BME280;63165;43.016;25.784;2023-03-12T03:02:02;99275.22;;;6.92;46.18
9523;BME280;63165;43.016;25.784;2023-03-12T03:04:30;99278.81;;;6.85;46.46
9523;BME280;63165;43.016;25.784;2023-03-12T03:06:59;99283.16;;;6.83;46.80
9523;BME280;63165;43.016;25.784;2023-03-12T03:09:27;99280.72;;;6.72;47.04
9523;BME280;63165;43.016;25.784;2023-03-12T03:11:54;99281.56;;;6.71;47.07
9523;BME280;63165;43.016;25.784;2023-03-12T03:14:22;99288.53;;;6.70;47.25
9523;BME280;63165;43.016;25.784;2023-03-12T03:16:51;99293.81;;;6.64;47.41
9523;BME280;63165;43.016;25.784;2023-03-12T03:19:18;99287.75;;;6.62;48.13
9523;BME280;63165;43.016;25.784;2023-03-12T03:21:45;99290.53;;;6.50;48.21
9523;BME280;63165;43.016;25.784;2023-03-12T03:24:13;99307.75;;;6.57;48.31
9523;BME280;63165;43.016;25.784;2023-03-12T03:26:40;99312.97;;;6.54;48.42
9523;BME280;63165;43.016;25.784;2023-03-12T03:29:07;99328.66;;;6.48;48.21
9523;BME280;63165;43.016;25.784;2023-03-12T03:31:34;99318.34;;;6.40;48.38
9523;BME280;63165;43.016;25.784;2023-03-12T03:34:03;99322.72;;;6.38;48.39
9523;BME280;63165;43.016;25.784;2023-03-12T03:36:31;99321.00;;;6.35;48.64
9523;BME280;63165;43.016;25.784;2023-03-12T03:38:58;99327.94;;;6.35;48.38
9523;BME280;63165;43.016;25.784;2023-03-12T03:41:25;99334.88;;;6.33;48.60
9523;BME280;63165;43.016;25.784;2023-03-12T03:43:55;99328.88;;;6.29;49.25
9523;BME280;63165;43.016;25.784;2023-03-12T03:46:24;99340.16;;;6.27;48.77
9523;BME280;63165;43.016;25.784;2023-03-12T03:48:51;99341.94;;;6.20;49.16
9523;BME280;63165;43.016;25.784;2023-03-12T03:51:20;99342.88;;;6.11;49.36
9523;BME280;63165;43.016;25.784;2023-03-12T03:53:47;99345.53;;;6.07;49.46
9523;BME280;63165;43.016;25.784;2023-03-12T03:56:15;99345.56;;;6.02;49.06
9523;BME280;63165;43.016;25.784;2023-03-12T03:58:42;99351.66;;;6.01;49.21
9523;BME280;63165;43.016;25.784;2023-03-12T04:01:11;99335.31;;;5.87;49.10
9523;BME280;63165;43.016;25.784;2023-03-12T04:03:39;99362.91;;;5.98;48.99
9523;BME280;63165;43.016;25.784;2023-03-12T04:06:06;99362.94;;;5.97;49.09
9523;BME280;63165;43.016;25.784;2023-03-12T04:08:35;99368.97;;;5.94;49.15
9523;BME280;63165;43.016;25.784;2023-03-12T04:11:07;99351.81;;;5.79;49.06
9523;BME280;63165;43.016;25.784;2023-03-12T04:13:34;99361.31;;;5.82;49.17
9523;BME280;63165;43.016;25.784;2023-03-12T04:16:02;99353.56;;;5.77;49.12
9523;BME280;63165;43.016;25.784;2023-03-12T04:18:29;99378.56;;;5.88;48.89
9523;BME280;63165;43.016;25.784;2023-03-12T04:20:56;99373.41;;;5.84;48.92
9523;BME280;63165;43.016;25.784;2023-03-12T04:23:24;99373.41;;;5.83;48.79
9523;BME280;63165;43.016;25.784;2023-03-12T04:25:53;99372.56;;;5.79;48.59
9523;BME280;63165;43.016;25.784;2023-03-12T04:28:20;99350.16;;;5.71;48.46
9523;BME280;63165;43.016;25.784;2023-03-12T04:30:53;99358.81;;;5.67;48.65
9523;BME280;63165;43.016;25.784;2023-03-12T04:33:21;99358.81;;;5.70;48.53
9523;BME280;63165;43.016;25.784;2023-03-12T04:35:52;99352.78;;;5.64;48.26
9523;BME280;63165;43.016;25.784;2023-03-12T04:38:20;99350.31;;;5.52;48.52
9523;BME280;63165;43.016;25.784;2023-03-12T04:40:58;99369.25;;;5.65;48.30
9523;BME280;63165;43.016;25.784;2023-03-12T04:43:25;99341.72;;;5.42;48.61
9523;BME280;63165;43.016;25.784;2023-03-12T04:45:53;99375.28;;;5.62;48.71
9523;BME280;63165;43.016;25.784;2023-03-12T04:48:20;99351.28;;;5.37;48.54
9523;BME280;63165;43.016;25.784;2023-03-12T04:50:47;99381.38;;;5.58;48.87
9523;BME280;63165;43.016;25.784;2023-03-12T04:53:15;99371.00;;;5.58;49.27
9523;BME280;63165;43.016;25.784;2023-03-12T04:55:42;99384.91;;;5.51;48.99
9523;BME280;63165;43.016;25.784;2023-03-12T04:58:13;99381.44;;;5.52;49.11
9523;BME280;63165;43.016;25.784;2023-03-12T05:00:41;99390.13;;;5.48;49.13
9523;BME280;63165;43.016;25.784;2023-03-12T05:03:08;99390.09;;;5.50;48.69
9523;BME280;63165;43.016;25.784;2023-03-12T05:05:36;99407.41;;;5.49;49.13
9523;BME280;63165;43.016;25.784;2023-03-12T05:08:03;99383.25;;;5.41;49.14
9523;BME280;63165;43.016;25.784;2023-03-12T05:10:30;99420.38;;;5.51;48.95
9523;BME280;63165;43.016;25.784;2023-03-12T05:12:58;99392.78;;;5.34;49.22
9523;BME280;63165;43.016;25.784;2023-03-12T05:15:27;99420.34;;;5.52;49.09
9523;BME280;63165;43.016;25.784;2023-03-12T05:17:54;99421.22;;;5.51;48.89
9523;BME280;63165;43.016;25.784;2023-03-12T05:20:21;99396.22;;;5.38;48.91
9523;BME280;63165;43.016;25.784;2023-03-12T05:22:49;99434.19;;;5.56;49.27
9523;BME280;63165;43.016;25.784;2023-03-12T05:25:16;99450.50;;;5.70;48.98
9523;BME280;63165;43.016;25.784;2023-03-12T05:27:44;99441.00;;;5.71;48.86
9523;BME280;63165;43.016;25.784;2023-03-12T05:30:11;99437.47;;;5.78;48.13
9523;BME280;63165;43.016;25.784;2023-03-12T05:32:40;99449.50;;;5.91;48.34
9523;BME280;63165;43.016;25.784;2023-03-12T05:35:08;99441.72;;;5.91;48.65
9523;BME280;63165;43.016;25.784;2023-03-12T05:37:35;99443.41;;;6.01;48.39
9523;BME280;63165;43.016;25.784;2023-03-12T05:40:11;99432.09;;;6.04;48.11
9523;BME280;63165;43.016;25.784;2023-03-12T05:42:39;99454.53;;;6.17;48.01
9523;BME280;63165;43.016;25.784;2023-03-12T05:45:08;99441.50;;;6.22;48.10
9523;BME280;63165;43.016;25.784;2023-03-12T05:47:35;99455.31;;;6.24;47.60
9523;BME280;63165;43.016;25.784;2023-03-12T05:50:05;99444.94;;;6.24;47.36
9523;BME280;63165;43.016;25.784;2023-03-12T05:52:34;99468.22;;;6.36;47.35
9523;BME280;63165;43.016;25.784;2023-03-12T05:55:01;99470.75;;;6.43;47.40
9523;BME280;63165;43.016;25.784;2023-03-12T05:57:28;99481.13;;;6.46;47.07
9523;BME280;63165;43.016;25.784;2023-03-12T05:59:56;99483.66;;;6.52;46.89
9523;BME280;63165;43.016;25.784;2023-03-12T06:02:23;99488.78;;;6.59;47.16
9523;BME280;63165;43.016;25.784;2023-03-12T06:04:50;99485.31;;;6.60;46.50
9523;BME280;63165;43.016;25.784;2023-03-12T06:07:19;99486.94;;;6.72;45.95
9523;BME280;63165;43.016;25.784;2023-03-12T06:09:46;99496.38;;;6.81;45.53
9523;BME280;63165;43.016;25.784;2023-03-12T06:12:13;99503.28;;;6.84;45.73
9523;BME280;63165;43.016;25.784;2023-03-12T06:14:40;99470.41;;;6.78;45.31
9523;BME280;63165;43.016;25.784;2023-03-12T06:17:08;99512.69;;;6.95;44.91
9523;BME280;63165;43.016;25.784;2023-03-12T06:19:35;99511.72;;;7.04;45.05
9523;BME280;63165;43.016;25.784;2023-03-12T06:22:02;99480.63;;;6.96;45.04
9523;BME280;63165;43.016;25.784;2023-03-12T06:24:31;99494.38;;;7.06;44.64
9523;BME280;63165;43.016;25.784;2023-03-12T06:26:58;99515.00;;;7.22;44.90
9523;BME280;63165;43.016;25.784;2023-03-12T06:29:26;99505.47;;;7.22;45.00
9523;BME280;63165;43.016;25.784;2023-03-12T06:31:53;99527.88;;;7.35;44.89
9523;BME280;63165;43.016;25.784;2023-03-12T06:34:20;99505.47;;;7.22;44.82
9523;BME280;63165;43.016;25.784;2023-03-12T06:36:48;99520.00;;;7.38;44.84
9523;BME280;63165;43.016;25.784;2023-03-12T06:39:15;99472.63;;;7.12;45.07
9523;BME280;63165;43.016;25.784;2023-03-12T06:41:44;99499.25;;;7.34;45.06
9523;BME280;63165;43.016;25.784;2023-03-12T06:44:12;99509.50;;;7.46;44.39
9523;BME280;63165;43.016;25.784;2023-03-12T06:46:39;99539.66;;;7.63;43.87
9523;BME280;63165;43.016;25.784;2023-03-12T06:49:08;99539.66;;;7.61;44.30
9523;BME280;63165;43.016;25.784;2023-03-12T06:51:36;99540.50;;;7.65;44.35
9523;BME280;63165;43.016;25.784;2023-03-12T06:54:03;99556.19;;;7.58;44.18
9523;BME280;63165;43.016;25.784;2023-03-12T06:56:30;99546.41;;;7.76;43.86
9523;BME280;63165;43.016;25.784;2023-03-12T06:58:59;99556.69;;;7.87;43.84
9523;BME280;63165;43.016;25.784;2023-03-12T07:01:27;99549.00;;;7.77;43.46
9523;BME280;63165;43.016;25.784;2023-03-12T07:03:54;99574.88;;;7.91;43.91
9523;BME280;63165;43.016;25.784;2023-03-12T07:06:22;99549.94;;;7.72;43.76
9523;BME280;63165;43.016;25.784;2023-03-12T07:08:49;99587.75;;;8.02;43.84
9523;BME280;63165;43.016;25.784;2023-03-12T07:11:17;99600.69;;;8.10;42.96
9523;BME280;63165;43.016;25.784;2023-03-12T07:13:44;99601.44;;;8.16;43.03
9523;BME280;63165;43.016;25.784;2023-03-12T07:16:13;99615.31;;;8.20;42.97
9523;BME280;63165;43.016;25.784;2023-03-12T07:18:40;99615.22;;;8.25;43.07
9523;BME280;63165;43.016;25.784;2023-03-12T07:21:08;99623.03;;;8.25;42.74
9523;BME280;63165;43.016;25.784;2023-03-12T07:23:35;99591.00;;;8.18;42.78
9523;BME280;63165;43.016;25.784;2023-03-12T07:26:03;99610.75;;;8.34;42.57
9523;BME280;63165;43.016;25.784;2023-03-12T07:28:31;99543.47;;;8.02;42.85
9523;BME280;63165;43.016;25.784;2023-03-12T07:31:01;99611.53;;;8.41;42.58
9523;BME280;63165;43.016;25.784;2023-03-12T07:33:31;99611.34;;;8.55;42.62
9523;BME280;63165;43.016;25.784;2023-03-12T07:35:58;99612.09;;;8.62;43.21
9523;BME280;63165;43.016;25.784;2023-03-12T07:38:26;99638.75;;;8.81;42.75
9523;BME280;63165;43.016;25.784;2023-03-12T07:40:54;99612.66;;;8.82;42.59
9523;BME280;63165;43.016;25.784;2023-03-12T07:43:21;99629.06;;;8.90;42.73
9523;BME280;63165;43.016;25.784;2023-03-12T07:45:49;99635.84;;;8.99;42.44
9523;BME280;63165;43.016;25.784;2023-03-12T07:48:17;99627.06;;;9.05;41.69
9523;BME280;63165;43.016;25.784;2023-03-12T07:50:46;99648.66;;;9.15;42.04
9523;BME280;63165;43.016;25.784;2023-03-12T07:53:14;99651.97;;;9.24;41.73
9523;BME280;63165;43.016;25.784;2023-03-12T07:55:42;99669.47;;;9.18;40.98
9523;BME280;63165;43.016;25.784;2023-03-12T07:58:10;99660.94;;;9.08;40.97
9523;BME280;63165;43.016;25.784;2023-03-12T08:00:37;99664.53;;;9.01;40.71
9523;BME280;63165;43.016;25.784;2023-03-12T08:03:05;99661.94;;;8.99;40.69
9523;BME280;63165;43.016;25.784;2023-03-12T08:05:32;99661.06;;;9.00;41.15
9523;BME280;63165;43.016;25.784;2023-03-12T08:08:01;99682.78;;;9.02;40.72
9523;BME280;63165;43.016;25.784;2023-03-12T08:10:28;99679.06;;;9.17;40.67
9523;BME280;63165;43.016;25.784;2023-03-12T08:12:55;99665.16;;;9.17;40.83
9523;BME280;63165;43.016;25.784;2023-03-12T08:15:22;99681.88;;;9.55;41.12
9523;BME280;63165;43.016;25.784;2023-03-12T08:17:50;99648.69;;;9.60;41.40
9523;BME280;63165;43.016;25.784;2023-03-12T08:20:17;99646.75;;;9.71;41.13
9523;BME280;63165;43.016;25.784;2023-03-12T08:22:44;99679.38;;;9.94;40.72
9523;BME280;63165;43.016;25.784;2023-03-12T08:25:13;99659.69;;;9.76;40.65
9523;BME280;63165;43.016;25.784;2023-03-12T08:27:40;99694.91;;;10.01;40.51
9523;BME280;63165;43.016;25.784;2023-03-12T08:30:08;99680.91;;;10.04;39.79
9523;BME280;63165;43.016;25.784;2023-03-12T08:32:36;99681.84;;;10.01;39.51
9523;BME280;63165;43.016;25.784;2023-03-12T08:35:04;99688.25;;;9.86;39.64
9523;BME280;63165;43.016;25.784;2023-03-12T08:37:31;99703.91;;;9.86;40.16
9523;BME280;63165;43.016;25.784;2023-03-12T08:39:58;99716.88;;;9.91;39.75
9523;BME280;63165;43.016;25.784;2023-03-12T08:42:27;99738.88;;;9.79;39.02
9523;BME280;63165;43.016;25.784;2023-03-12T08:44:54;99721.59;;;9.72;39.18
9523;BME280;63165;43.016;25.784;2023-03-12T08:47:21;99733.91;;;9.65;39.49
9523;BME280;63165;43.016;25.784;2023-03-12T08:49:48;99732.19;;;9.63;39.59
9523;BME280;63165;43.016;25.784;2023-03-12T08:52:15;99739.28;;;9.58;39.59
9523;BME280;63165;43.016;25.784;2023-03-12T08:54:43;99742.78;;;9.57;39.86
9523;BME280;63165;43.016;25.784;2023-03-12T08:57:10;99748.94;;;9.52;39.69
9523;BME280;63165;43.016;25.784;2023-03-12T08:59:38;99729.91;;;9.46;39.96
9523;BME280;63165;43.016;25.784;2023-03-12T09:02:06;99723.03;;;9.40;39.94
9523;BME280;63165;43.016;25.784;2023-03-12T09:04:33;99738.63;;;9.45;39.60
9523;BME280;63165;43.016;25.784;2023-03-12T09:07:00;99743.84;;;9.45;40.16
9523;BME280;63165;43.016;25.784;2023-03-12T09:09:28;99742.06;;;9.48;40.32
9523;BME280;63165;43.016;25.784;2023-03-12T09:11:55;99742.88;;;9.52;40.36
9523;BME280;63165;43.016;25.784;2023-03-12T09:14:23;99723.63;;;9.58;39.98
9523;BME280;63165;43.016;25.784;2023-03-12T09:16:51;99732.31;;;9.58;39.65
9523;BME280;63165;43.016;25.784;2023-03-12T09:19:19;99734.84;;;9.61;39.64
9523;BME280;63165;43.016;25.784;2023-03-12T09:21:46;99737.34;;;9.69;39.43
9523;BME280;63165;43.016;25.784;2023-03-12T09:24:14;99733.53;;;9.85;39.87
9523;BME280;63165;43.016;25.784;2023-03-12T09:26:41;99724.38;;;10.08;40.10
9523;BME280;63165;43.016;25.784;2023-03-12T09:29:08;99714.69;;;10.15;40.32
9523;BME280;63165;43.016;25.784;2023-03-12T09:31:36;99714.38;;;10.28;39.97
9523;BME280;63165;43.016;25.784;2023-03-12T09:34:05;99742.53;;;10.61;39.90
9523;BME280;63165;43.016;25.784;2023-03-12T09:36:32;99732.66;;;10.74;40.10
9523;BME280;63165;43.016;25.784;2023-03-12T09:39:00;99728.09;;;10.82;39.93
9523;BME280;63165;43.016;25.784;2023-03-12T09:41:29;99727.63;;;11.02;39.62
9523;BME280;63165;43.016;25.784;2023-03-12T09:44:00;99729.28;;;11.06;39.33
9523;BME280;63165;43.016;25.784;2023-03-12T09:46:33;99726.28;;;11.21;39.14
9523;BME280;63165;43.016;25.784;2023-03-12T09:49:11;99738.34;;;11.29;38.78
9523;BME280;63165;43.016;25.784;2023-03-12T09:51:43;99738.22;;;11.33;38.95
9523;BME280;63165;43.016;25.784;2023-03-12T09:54:21;99726.72;;;11.39;38.83
9523;BME280;63165;43.016;25.784;2023-03-12T09:56:50;99698.25;;;11.25;38.60
9523;BME280;63165;43.016;25.784;2023-03-12T09:59:18;99729.31;;;11.40;37.89
9523;BME280;63165;43.016;25.784;2023-03-12T10:01:49;99738.28;;;11.32;37.19
9523;BME280;63165;43.016;25.784;2023-03-12T10:04:37;99735.75;;;11.27;37.56
9523;BME280;63165;43.016;25.784;2023-03-12T10:07:11;99736.56;;;11.29;37.80
9523;BME280;63165;43.016;25.784;2023-03-12T10:09:56;99741.75;;;11.32;38.01
9523;BME280;63165;43.016;25.784;2023-03-12T10:12:33;99743.44;;;11.33;37.89
9523;BME280;63165;43.016;25.784;2023-03-12T10:15:15;99734.16;;;11.21;38.27
9523;BME280;63165;43.016;25.784;2023-03-12T10:17:56;99747.78;;;11.36;37.89
9523;BME280;63165;43.016;25.784;2023-03-12T10:20:58;99746.00;;;11.36;37.36
9523;BME280;63165;43.016;25.784;2023-03-12T10:23:34;99736.50;;;11.32;37.52
9523;BME280;63165;43.016;25.784;2023-03-12T10:26:08;99749.56;;;11.34;37.98
9523;BME280;63165;43.016;25.784;2023-03-12T10:28:39;99745.72;;;11.49;37.87
9523;BME280;63165;43.016;25.784;2023-03-12T10:31:16;99740.22;;;11.58;37.53
9523;BME280;63165;43.016;25.784;2023-03-12T10:33:48;99740.16;;;11.59;37.46
9523;BME280;63165;43.016;25.784;2023-03-12T10:36:23;99735.81;;;11.60;38.12
9523;BME280;63165;43.016;25.784;2023-03-12T10:38:51;99717.72;;;11.51;37.84
9523;BME280;63165;43.016;25.784;2023-03-12T10:41:21;99749.94;;;11.54;38.08
9523;BME280;63165;43.016;25.784;2023-03-12T10:43:49;99761.94;;;11.61;38.00
9523;BME280;63165;43.016;25.784;2023-03-12T10:46:42;99762.22;;;11.52;37.91
9523;BME280;63165;43.016;25.784;2023-03-12T10:49:23;99764.97;;;11.46;38.13
9523;BME280;63165;43.016;25.784;2023-03-12T10:51:57;99762.63;;;11.35;37.89
9523;BME280;63165;43.016;25.784;2023-03-12T10:54:30;99757.44;;;11.34;37.96
9523;BME280;63165;43.016;25.784;2023-03-12T10:56:57;99754.69;;;11.38;38.08
9523;BME280;63165;43.016;25.784;2023-03-12T10:59:28;99725.09;;;11.35;38.13
9523;BME280;63165;43.016;25.784;2023-03-12T11:01:56;99751.16;;;11.74;38.15
9523;BME280;63165;43.016;25.784;2023-03-12T11:04:26;99758.38;;;12.00;37.62
9523;BME280;63165;43.016;25.784;2023-03-12T11:07:14;99745.63;;;12.17;36.49
9523;BME280;63165;43.016;25.784;2023-03-12T11:09:44;99752.00;;;12.40;36.98
9523;BME280;63165;43.016;25.784;2023-03-12T11:12:30;99747.34;;;12.50;36.70
9523;BME280;63165;43.016;25.784;2023-03-12T11:14:57;99744.34;;;12.62;36.50
9523;BME280;63165;43.016;25.784;2023-03-12T11:17:27;99735.44;;;12.38;36.12
9523;BME280;63165;43.016;25.784;2023-03-12T11:19:54;99737.53;;;12.56;36.11
9523;BME280;63165;43.016;25.784;2023-03-12T11:22:31;99716.19;;;12.39;36.11
9523;BME280;63165;43.016;25.784;2023-03-12T11:25:00;99712.00;;;12.32;36.55
9523;BME280;63165;43.016;25.784;2023-03-12T11:27:37;99736.84;;;12.50;35.81
9523;BME280;63165;43.016;25.784;2023-03-12T11:30:11;99740.41;;;12.47;36.23
9523;BME280;63165;43.016;25.784;2023-03-12T11:32:42;99735.22;;;12.46;36.29
9523;BME280;63165;43.016;25.784;2023-03-12T11:35:12;99716.59;;;12.25;36.08
9523;BME280;63165;43.016;25.784;2023-03-12T11:37:54;99745.06;;;12.37;36.44
9523;BME280;63165;43.016;25.784;2023-03-12T11:40:40;99746.13;;;12.32;35.91
9523;BME280;63165;43.016;25.784;2023-03-12T11:43:22;99757.38;;;12.35;36.56
9523;BME280;63165;43.016;25.784;2023-03-12T11:46:06;99751.44;;;12.29;36.54
9523;BME280;63165;43.016;25.784;2023-03-12T11:48:42;99764.25;;;12.08;36.45
9523;BME280;63165;43.016;25.784;2023-03-12T11:51:19;99752.72;;;11.81;36.66
9523;BME280;63165;43.016;25.784;2023-03-12T11:54:05;99752.78;;;11.78;36.85
9523;BME280;63165;43.016;25.784;2023-03-12T11:56:40;99766.78;;;11.78;37.28
9523;BME280;63165;43.016;25.784;2023-03-12T11:59:21;99765.13;;;11.74;37.27
9523;BME280;63165;43.016;25.784;2023-03-12T12:02:03;99769.75;;;11.64;36.86
9523;BME280;63165;43.016;25.784;2023-03-12T12:04:55;99765.28;;;11.68;36.72
9523;BME280;63165;43.016;25.784;2023-03-12T12:07:39;99773.91;;;11.73;36.94
9523;BME280;63165;43.016;25.784;2023-03-12T12:10:20;99774.53;;;11.81;37.24
9523;BME280;63165;43.016;25.784;2023-03-12T12:12:56;99759.94;;;11.73;37.49
9523;BME280;63165;43.016;25.784;2023-03-12T12:15:33;99773.53;;;11.87;36.84
9523;BME280;63165;43.016;25.784;2023-03-12T12:18:16;99775.16;;;11.93;36.97
9523;BME280;63165;43.016;25.784;2023-03-12T12:20:55;99773.25;;;11.99;37.47
9523;BME280;63165;43.016;25.784;2023-03-12T12:23:30;99776.66;;;12.03;37.73
9523;BME280;63165;43.016;25.784;2023-03-12T12:26:08;99786.81;;;12.14;37.55
9523;BME280;63165;43.016;25.784;2023-03-12T12:29:19;99778.84;;;12.18;37.30
9523;BME280;63165;43.016;25.784;2023-03-12T12:31:53;99779.09;;;12.09;36.73
9523;BME280;63165;43.016;25.784;2023-03-12T12:34:52;99785.84;;;12.18;36.41
9523;BME280;63165;43.016;25.784;2023-03-12T12:37:28;99773.66;;;12.15;36.79
9523;BME280;63165;43.016;25.784;2023-03-12T12:40:02;99782.03;;;12.30;36.78
9523;BME280;63165;43.016;25.784;2023-03-12T12:42:44;99773.97;;;12.36;36.54
9523;BME280;63165;43.016;25.784;2023-03-12T12:45:14;99787.66;;;12.47;36.25
9523;BME280;63165;43.016;25.784;2023-03-12T12:47:46;99793.63;;;12.52;36.05
9523;BME280;63165;43.016;25.784;2023-03-12T12:50:19;99785.69;;;12.55;36.37
9523;BME280;63165;43.016;25.784;2023-03-12T12:52:51;99787.38;;;12.56;35.98
9523;BME280;63165;43.016;25.784;2023-03-12T12:55:24;99783.81;;;12.59;35.92
9523;BME280;63165;43.016;25.784;2023-03-12T12:57:58;99781.19;;;12.59;36.07
9523;BME280;63165;43.016;25.784;2023-03-12T13:00:42;99789.13;;;12.57;35.95
9523;BME280;63165;43.016;25.784;2023-03-12T13:03:14;99789.31;;;12.51;35.91
9523;BME280;63165;43.016;25.784;2023-03-12T13:05:46;99804.94;;;12.54;36.16
9523;BME280;63165;43.016;25.784;2023-03-12T13:08:56;99792.38;;;12.34;36.10
9523;BME280;63165;43.016;25.784;2023-03-12T13:11:30;99807.19;;;12.37;35.83
9523;BME280;63165;43.016;25.784;2023-03-12T13:17:06;99784.25;;;12.12;36.06
9523;BME280;63165;43.016;25.784;2023-03-12T13:19:39;99800.84;;;12.13;35.96
9523;BME280;63165;43.016;25.784;2023-03-12T13:22:14;99801.03;;;12.07;36.09
9523;BME280;63165;43.016;25.784;2023-03-12T13:24:50;99803.72;;;12.03;36.38
9523;BME280;63165;43.016;25.784;2023-03-12T13:27:23;99779.72;;;11.84;36.35